KPDT/PDT METAR and TAF weather

Enter ICAO airport designator
Station Type Date Time Source
KPDT METAR 2021/07/26 11:53 UTC NOAA

KPDT 261153Z AUTO 14006KT 10SM CLR 18/04 A2993 RMK AO2 SLP116 T01780039 10261 20178 51004


Station Type Date Time Source
KPDT Decoded METAR 2021/07/26 11:53 UTC NOAA

PENDLETON MUNICIPAL AIRPORT, OR, United States (KPDT) 45-70N 118-83W 458M
Jul 26, 2021 - 07:53 AM EDT / 2021.07.26 1153 UTC
Wind: from the SE (140 degrees) at 7 MPH (6 KT):0
Visibility: 10 mile(s):0
Sky conditions: clear
Temperature: 64.0 F (17.8 C)
Dew Point: 39.0 F (3.9 C)
Relative Humidity: 39%
Pressure (altimeter): 29.93 in. Hg (1013 hPa)
Pressure tendency: 0.01 inches (0.4 hPa) higher than three hours ago
ob: KPDT 261153Z AUTO 14006KT 10SM CLR 18/04 A2993 RMK AO2 SLP116 T01780039 10261 20178 51004
cycle: 12

Station Type Date Time Source
KPDT TAF 2021/07/26 12:22 UTC NOAA

TAF KPDT 261120Z 2612/2712 14006KT P6SM SCT200
FM261800 31008KT P6SM BKN200
FM262200 30010KT P6SM SCT100 BKN200
FM270400 23006KT P6SM SCT100 BKN200

Example: see airport list